createdAt,value
2018-09-15T00:01:07.913Z,16.77
2018-09-15T00:03:35.900Z,16.67
2018-09-15T00:06:03.918Z,16.66
2018-09-15T00:08:31.964Z,16.51
2018-09-15T00:11:00.447Z,16.52
2018-09-15T00:13:28.539Z,16.25
2018-09-15T00:15:56.471Z,16.20
2018-09-15T00:18:24.404Z,16.21
2018-09-15T00:20:52.317Z,16.02
2018-09-15T00:23:20.299Z,15.90
2018-09-15T00:25:48.258Z,15.77
2018-09-15T00:28:17.146Z,15.85
2018-09-15T00:30:45.058Z,15.94
2018-09-15T00:33:13.012Z,15.81
2018-09-15T00:35:40.979Z,16.01
2018-09-15T00:38:12.844Z,15.89
2018-09-15T00:40:40.826Z,15.95
2018-09-15T00:43:08.710Z,15.82
2018-09-15T00:45:36.604Z,15.77
2018-09-15T00:48:04.527Z,15.83
2018-09-15T00:50:32.469Z,15.86
2018-09-15T00:53:00.348Z,15.73
2018-09-15T00:55:28.267Z,15.86
2018-09-15T00:57:56.410Z,15.85
2018-09-15T01:00:24.360Z,15.87
2018-09-15T01:02:52.406Z,15.95
2018-09-15T01:05:20.472Z,16.01
2018-09-15T01:07:48.358Z,15.97
2018-09-15T01:10:16.290Z,15.86
2018-09-15T01:12:44.173Z,15.83
2018-09-15T01:15:12.102Z,15.88
2018-09-15T01:17:40.101Z,15.82
2018-09-15T01:20:08.119Z,15.91
2018-09-15T01:22:35.999Z,15.81
2018-09-15T01:25:03.944Z,15.78
2018-09-15T01:27:31.957Z,15.81
2018-09-15T01:29:59.826Z,15.82
2018-09-15T01:32:28.266Z,15.57
2018-09-15T01:34:56.829Z,15.52
2018-09-15T01:37:24.940Z,15.49
2018-09-15T01:39:52.964Z,15.59
2018-09-15T01:42:21.039Z,15.65
2018-09-15T01:44:49.341Z,15.69
2018-09-15T01:47:17.352Z,15.48
2018-09-15T01:49:45.871Z,15.46
2018-09-15T01:52:13.998Z,15.40
2018-09-15T01:54:42.055Z,15.36
2018-09-15T01:57:10.080Z,15.34
2018-09-15T01:59:38.139Z,15.29
2018-09-15T02:02:06.179Z,15.40
2018-09-15T02:04:34.232Z,15.21
2018-09-15T02:07:02.282Z,15.12
2018-09-15T02:09:30.596Z,15.00
2018-09-15T02:11:58.516Z,15.06
2018-09-15T02:14:26.363Z,15.08
2018-09-15T02:16:54.316Z,14.88
2018-09-15T02:19:22.194Z,14.52
2018-09-15T02:21:50.101Z,14.23
2018-09-15T02:24:18.068Z,14.18
2018-09-15T02:26:46.076Z,14.23
2018-09-15T02:29:14.008Z,14.44
2018-09-15T02:31:41.967Z,14.22
2018-09-15T02:34:09.943Z,14.23
2018-09-15T02:36:38.062Z,14.52
2018-09-15T02:39:07.563Z,14.67
2018-09-15T02:41:35.588Z,14.64
2018-09-15T02:44:03.487Z,14.63
2018-09-15T02:46:31.582Z,14.62
2018-09-15T02:48:59.502Z,14.60
2018-09-15T02:51:27.386Z,14.49
2018-09-15T02:53:55.373Z,14.73
2018-09-15T02:56:23.490Z,14.80
2018-09-15T02:58:51.402Z,14.95
2018-09-15T03:01:19.328Z,14.98
2018-09-15T03:03:47.288Z,14.73
2018-09-15T03:06:15.270Z,14.72
2018-09-15T03:08:43.238Z,14.64
2018-09-15T03:11:14.031Z,14.47
2018-09-15T03:13:42.013Z,14.41
2018-09-15T03:16:09.873Z,14.38
2018-09-15T03:18:37.926Z,14.38
2018-09-15T03:21:06.139Z,14.50
2018-09-15T03:23:33.999Z,14.50
2018-09-15T03:26:02.043Z,14.35
2018-09-15T03:28:29.921Z,14.20
2018-09-15T03:30:57.934Z,14.19
2018-09-15T03:33:25.938Z,14.09
2018-09-15T03:35:53.830Z,14.00
2018-09-15T03:38:21.802Z,14.17
2018-09-15T03:40:49.744Z,14.03
2018-09-15T03:43:18.717Z,13.87
2018-09-15T03:45:46.707Z,13.62
2018-09-15T03:48:14.636Z,13.52
2018-09-15T03:50:42.542Z,13.70
2018-09-15T03:53:10.470Z,13.85
2018-09-15T03:55:38.411Z,13.93
2018-09-15T03:58:06.390Z,13.87
2018-09-15T04:00:34.256Z,13.67
2018-09-15T04:03:02.187Z,13.91
2018-09-15T04:05:30.238Z,14.00
2018-09-15T04:07:58.195Z,14.04
2018-09-15T04:10:26.211Z,14.25
2018-09-15T04:12:54.102Z,14.29
2018-09-15T04:15:22.054Z,14.29
2018-09-15T04:17:50.007Z,14.24
2018-09-15T04:20:17.938Z,14.27
2018-09-15T04:22:45.789Z,14.30
2018-09-15T04:25:13.726Z,14.18
2018-09-15T04:27:41.662Z,14.25
2018-09-15T04:30:09.571Z,14.61
2018-09-15T04:32:37.540Z,14.65
2018-09-15T04:35:05.454Z,14.70
2018-09-15T04:37:33.547Z,15.02
2018-09-15T04:40:01.591Z,15.06
2018-09-15T04:42:29.549Z,14.47
2018-09-15T04:44:57.541Z,14.23
2018-09-15T04:47:25.695Z,14.24
2018-09-15T04:49:53.706Z,13.93
2018-09-15T04:52:21.630Z,13.36
2018-09-15T04:54:49.704Z,13.26
2018-09-15T04:57:17.679Z,13.11
2018-09-15T04:59:45.805Z,13.22
2018-09-15T05:02:13.791Z,13.53
2018-09-15T05:04:41.884Z,14.01
2018-09-15T05:07:09.875Z,14.21
2018-09-15T05:09:37.880Z,14.70
2018-09-15T05:12:05.864Z,14.85
2018-09-15T05:14:33.780Z,14.99
2018-09-15T05:17:01.708Z,15.22
2018-09-15T05:19:29.638Z,15.34
2018-09-15T05:21:57.830Z,15.41
2018-09-15T05:24:26.024Z,15.28
2018-09-15T05:26:54.015Z,15.10
2018-09-15T05:29:21.963Z,15.28
2018-09-15T05:31:49.837Z,15.24
2018-09-15T05:34:18.584Z,15.14
2018-09-15T05:36:46.574Z,14.92
2018-09-15T05:39:14.530Z,15.08
2018-09-15T05:41:42.842Z,15.36
2018-09-15T05:44:10.758Z,15.64
2018-09-15T05:46:38.785Z,15.67
2018-09-15T05:49:06.766Z,15.89
2018-09-15T05:51:34.660Z,16.24
2018-09-15T05:54:02.693Z,16.51
2018-09-15T05:56:30.583Z,16.50
2018-09-15T05:58:58.524Z,16.81
2018-09-15T06:01:26.729Z,16.95
2018-09-15T06:03:55.120Z,16.97
2018-09-15T06:06:24.119Z,17.13
2018-09-15T06:08:52.270Z,17.20
2018-09-15T06:11:20.237Z,17.30
2018-09-15T06:13:48.263Z,17.34
2018-09-15T06:16:16.206Z,17.47
2018-09-15T06:18:44.244Z,17.64
2018-09-15T06:21:12.173Z,17.44
2018-09-15T06:23:40.163Z,17.58
2018-09-15T06:26:09.417Z,17.78
2018-09-15T06:28:37.428Z,17.45
2018-09-15T06:31:05.779Z,17.47
2018-09-15T06:33:33.932Z,17.34
2018-09-15T06:36:01.934Z,17.55
2018-09-15T06:38:29.956Z,17.98
2018-09-15T06:40:58.545Z,18.84
2018-09-15T06:43:27.586Z,17.01
2018-09-15T06:45:55.531Z,20.14
2018-09-15T06:48:23.585Z,20.09
2018-09-15T06:50:52.680Z,20.17
2018-09-15T06:53:22.081Z,20.45
2018-09-15T06:55:50.221Z,21.50
2018-09-15T06:58:18.229Z,21.67
2018-09-15T07:00:46.210Z,20.67
2018-09-15T07:03:15.859Z,20.42
2018-09-15T07:05:43.842Z,20.28
2018-09-15T07:08:11.942Z,19.72
2018-09-15T07:10:39.874Z,19.88
2018-09-15T07:13:07.998Z,19.82
2018-09-15T07:15:35.956Z,20.75
2018-09-15T07:18:04.017Z,22.29
2018-09-15T07:20:31.971Z,21.47
2018-09-15T07:22:59.845Z,20.39
2018-09-15T07:25:28.190Z,20.02
2018-09-15T07:27:56.278Z,20.58
2018-09-15T07:30:24.186Z,20.33
2018-09-15T07:32:52.402Z,21.56
2018-09-15T07:35:20.375Z,22.48
2018-09-15T07:37:48.372Z,22.74
2018-09-15T07:40:17.590Z,23.03
2018-09-15T07:42:45.672Z,23.87
2018-09-15T07:45:13.678Z,24.84
2018-09-15T07:47:41.685Z,25.60
2018-09-15T07:50:13.795Z,26.09
2018-09-15T07:52:46.179Z,25.18
2018-09-15T07:55:14.315Z,25.06
2018-09-15T07:57:42.483Z,22.95
2018-09-15T08:00:10.422Z,22.71
2018-09-15T08:02:38.388Z,21.77
2018-09-15T08:05:06.890Z,22.51
2018-09-15T08:07:34.849Z,23.20
2018-09-15T08:10:02.818Z,23.07
2018-09-15T08:12:30.774Z,22.28
2018-09-15T08:14:58.794Z,22.70
2018-09-15T08:17:27.038Z,22.82
2018-09-15T08:19:55.062Z,22.99
2018-09-15T08:22:23.777Z,22.52
2018-09-15T08:24:51.910Z,22.64
2018-09-15T08:27:19.877Z,22.70
2018-09-15T08:29:49.251Z,22.57
2018-09-15T08:32:17.195Z,22.44
2018-09-15T08:34:45.487Z,22.23
2018-09-15T08:37:13.428Z,22.63
2018-09-15T08:39:41.402Z,23.39
2018-09-15T08:42:09.458Z,23.47
2018-09-15T08:44:37.422Z,24.59
2018-09-15T08:47:06.101Z,25.70
2018-09-15T08:49:34.090Z,26.43
2018-09-15T08:52:02.189Z,26.76
2018-09-15T08:54:30.198Z,27.09
2018-09-15T08:56:58.280Z,27.22
2018-09-15T08:59:26.150Z,26.34
2018-09-15T09:01:54.766Z,27.11
2018-09-15T09:04:22.914Z,27.14
2018-09-15T09:06:50.861Z,25.86
2018-09-15T09:09:18.783Z,25.83
2018-09-15T09:11:46.911Z,24.83
2018-09-15T09:14:14.895Z,24.98
2018-09-15T09:16:42.904Z,25.22
2018-09-15T09:19:10.933Z,25.56
2018-09-15T09:21:38.907Z,25.74
2018-09-15T09:24:06.850Z,25.22
2018-09-15T09:26:34.873Z,25.53
2018-09-15T09:29:02.986Z,25.17
2018-09-15T09:31:30.962Z,25.05
2018-09-15T09:33:59.015Z,25.79
2018-09-15T09:36:27.039Z,26.04
2018-09-15T09:38:55.311Z,26.57
2018-09-15T09:41:23.365Z,26.18
2018-09-15T09:43:51.426Z,26.19
2018-09-15T09:46:19.509Z,26.27
2018-09-15T09:48:47.466Z,26.74
2018-09-15T09:51:15.492Z,27.21
2018-09-15T09:53:43.487Z,27.78
2018-09-15T09:56:11.589Z,27.80
2018-09-15T09:58:39.694Z,27.44
2018-09-15T10:01:13.252Z,26.77
2018-09-15T10:03:41.280Z,26.28
2018-09-15T10:06:09.237Z,26.45
2018-09-15T10:08:37.560Z,27.19
2018-09-15T10:11:05.680Z,26.73
2018-09-15T10:13:33.856Z,27.45
2018-09-15T10:16:01.872Z,27.80
2018-09-15T10:18:29.750Z,28.11
2018-09-15T10:20:57.734Z,28.27
2018-09-15T10:23:25.761Z,28.35
2018-09-15T10:25:53.938Z,28.46
2018-09-15T10:28:21.989Z,28.02
2018-09-15T10:30:49.992Z,27.89
2018-09-15T10:33:17.995Z,28.02
2018-09-15T10:35:46.526Z,28.05
2018-09-15T10:38:14.688Z,27.69
2018-09-15T10:40:42.722Z,28.04
2018-09-15T10:43:10.739Z,26.99
2018-09-15T10:45:38.837Z,26.46
2018-09-15T10:48:06.936Z,26.71
2018-09-15T10:50:35.167Z,26.34
2018-09-15T10:53:03.324Z,25.98
2018-09-15T10:55:31.480Z,26.98
2018-09-15T10:57:59.439Z,27.44
2018-09-15T11:00:28.554Z,27.71
2018-09-15T11:02:56.464Z,27.66
2018-09-15T11:05:24.456Z,27.71
2018-09-15T11:07:52.541Z,28.05
2018-09-15T11:10:20.603Z,28.37
2018-09-15T11:12:48.565Z,28.64
2018-09-15T11:15:16.529Z,29.13
2018-09-15T11:17:44.454Z,29.33
2018-09-15T11:20:12.437Z,29.07
2018-09-15T11:22:40.433Z,28.16
2018-09-15T11:25:09.261Z,28.26
2018-09-15T11:27:37.348Z,28.89
2018-09-15T11:30:05.933Z,28.76
2018-09-15T11:32:34.279Z,28.95
2018-09-15T11:35:02.416Z,29.12
2018-09-15T11:37:31.311Z,29.53
2018-09-15T11:39:59.359Z,29.89
2018-09-15T11:42:27.804Z,30.06
2018-09-15T11:44:55.847Z,30.14
2018-09-15T11:47:23.983Z,29.06
2018-09-15T11:49:52.088Z,29.05
2018-09-15T11:52:21.409Z,29.34
2018-09-15T11:54:49.686Z,28.48
2018-09-15T11:57:18.256Z,27.96
2018-09-15T11:59:47.304Z,27.90
2018-09-15T12:02:15.545Z,28.57
2018-09-15T12:04:47.504Z,27.64
2018-09-15T12:07:15.761Z,27.54
2018-09-15T12:09:44.563Z,27.21
2018-09-15T12:12:12.824Z,27.09
2018-09-15T12:14:40.902Z,27.18
2018-09-15T12:17:08.876Z,26.87
2018-09-15T12:19:37.091Z,26.69
2018-09-15T12:22:04.896Z,26.82
2018-09-15T12:24:33.247Z,26.94
2018-09-15T12:27:01.273Z,27.17
2018-09-15T12:29:29.194Z,27.38
2018-09-15T12:31:57.361Z,27.69
2018-09-15T12:34:25.398Z,27.91
2018-09-15T12:36:54.899Z,27.54
2018-09-15T12:39:23.286Z,27.62
2018-09-15T12:41:51.420Z,27.03
2018-09-15T12:44:19.531Z,27.09
2018-09-15T12:46:47.586Z,27.84
2018-09-15T12:49:15.971Z,27.88
2018-09-15T12:51:44.183Z,27.37
2018-09-15T12:54:12.309Z,27.40
2018-09-15T12:56:40.316Z,27.83
2018-09-15T12:59:08.786Z,28.40
2018-09-15T13:01:37.717Z,27.97
2018-09-15T13:04:05.853Z,27.80
2018-09-15T13:06:33.885Z,27.62
2018-09-15T13:09:02.910Z,27.28
2018-09-15T13:11:30.902Z,27.53
2018-09-15T13:13:59.259Z,26.73
2018-09-15T13:16:27.253Z,26.87
2018-09-15T13:18:55.398Z,27.31
2018-09-15T13:21:23.380Z,27.52
2018-09-15T13:23:51.424Z,27.45
2018-09-15T13:26:19.374Z,27.84
2018-09-15T13:28:47.568Z,28.34
2018-09-15T13:31:15.707Z,27.69
2018-09-15T13:33:43.961Z,27.10
2018-09-15T13:36:12.187Z,26.87
2018-09-15T13:38:40.355Z,26.74
2018-09-15T13:41:08.350Z,26.65
2018-09-15T13:43:36.443Z,27.23
2018-09-15T13:46:04.910Z,27.47
2018-09-15T13:48:33.067Z,27.31
2018-09-15T13:51:01.039Z,27.14
2018-09-15T13:53:29.198Z,26.65
2018-09-15T13:55:57.415Z,26.32
2018-09-15T13:58:25.437Z,26.30
2018-09-15T14:00:54.061Z,26.26
2018-09-15T14:03:22.011Z,26.47
2018-09-15T14:05:50.043Z,26.65
2018-09-15T14:08:19.272Z,26.87
2018-09-15T14:10:47.358Z,26.91
2018-09-15T14:13:17.931Z,26.53
2018-09-15T14:15:46.124Z,26.80
2018-09-15T14:18:14.090Z,26.60
2018-09-15T14:20:42.246Z,26.69
2018-09-15T14:23:10.387Z,26.90
2018-09-15T14:25:38.359Z,27.20
2018-09-15T14:28:06.437Z,26.96
2018-09-15T14:30:34.533Z,26.65
2018-09-15T14:33:02.561Z,26.78
2018-09-15T14:35:30.791Z,26.67
2018-09-15T14:37:58.821Z,26.45
2018-09-15T14:40:26.814Z,26.35
2018-09-15T14:42:54.770Z,26.22
2018-09-15T14:45:22.735Z,26.36
2018-09-15T14:47:50.650Z,26.25
2018-09-15T14:50:18.656Z,26.47
2018-09-15T14:52:47.257Z,26.49
2018-09-15T14:55:15.379Z,26.50
2018-09-15T14:57:43.270Z,26.56
2018-09-15T15:00:11.256Z,26.56
2018-09-15T15:02:39.551Z,26.25
2018-09-15T15:05:07.572Z,26.27
2018-09-15T15:07:35.613Z,26.06
2018-09-15T15:10:03.662Z,26.08
2018-09-15T15:12:31.836Z,23.96
2018-09-15T15:14:59.832Z,25.95
2018-09-15T15:17:27.763Z,26.04
2018-09-15T15:19:55.778Z,26.00
2018-09-15T15:22:24.454Z,25.82
2018-09-15T15:24:52.594Z,25.79
2018-09-15T15:27:20.559Z,25.86
2018-09-15T15:29:49.650Z,25.81
2018-09-15T15:32:17.630Z,25.80
2018-09-15T15:34:45.829Z,25.76
2018-09-15T15:37:14.217Z,25.93
2018-09-15T15:39:42.401Z,26.21
2018-09-15T15:42:10.607Z,25.95
2018-09-15T15:44:38.533Z,25.91
2018-09-15T15:47:06.595Z,26.01
2018-09-15T15:49:34.805Z,25.94
2018-09-15T15:52:04.174Z,25.88
2018-09-15T15:54:32.233Z,25.61
2018-09-15T15:57:02.729Z,25.64
2018-09-15T15:59:32.206Z,25.30
2018-09-15T16:02:00.432Z,25.40
2018-09-15T16:04:28.480Z,25.40
2018-09-15T16:06:57.925Z,25.42
2018-09-15T16:09:28.316Z,25.10
2018-09-15T16:11:56.291Z,25.15
2018-09-15T16:14:24.354Z,25.19
2018-09-15T16:16:52.427Z,25.11
2018-09-15T16:19:20.699Z,25.00
2018-09-15T16:21:48.909Z,24.88
2018-09-15T16:24:16.998Z,24.83
2018-09-15T16:26:45.016Z,24.88
2018-09-15T16:29:13.031Z,24.92
2018-09-15T16:31:42.309Z,24.85
2018-09-15T16:34:10.277Z,25.00
2018-09-15T16:36:38.420Z,25.15
2018-09-15T16:39:09.482Z,24.74
2018-09-15T16:41:38.203Z,24.40
2018-09-15T16:44:06.451Z,24.29
2018-09-15T16:46:34.985Z,24.64
2018-09-15T16:49:03.117Z,24.66
2018-09-15T16:51:31.113Z,24.43
2018-09-15T16:53:59.114Z,24.18
2018-09-15T16:56:27.134Z,24.26
2018-09-15T16:58:55.166Z,24.27
2018-09-15T17:01:23.371Z,24.30
2018-09-15T17:03:51.404Z,24.30
2018-09-15T17:06:19.790Z,24.30
2018-09-15T17:08:48.067Z,24.15
2018-09-15T17:11:16.161Z,23.94
2018-09-15T17:13:44.230Z,23.75
2018-09-15T17:16:12.290Z,23.78
2018-09-15T17:18:40.359Z,23.69
2018-09-15T17:21:08.485Z,23.58
2018-09-15T17:23:36.577Z,23.45
2018-09-15T17:26:04.574Z,23.41
2018-09-15T17:28:32.896Z,23.33
2018-09-15T17:31:01.213Z,23.31
2018-09-15T17:33:29.345Z,23.26
2018-09-15T17:35:57.613Z,23.19
2018-09-15T17:38:25.523Z,23.04
2018-09-15T17:40:53.482Z,22.96
2018-09-15T17:43:21.384Z,22.56
2018-09-15T17:45:49.992Z,22.33
2018-09-15T17:48:18.088Z,22.25
2018-09-15T17:50:46.698Z,22.11
2018-09-15T17:53:14.798Z,22.06
2018-09-15T17:55:42.773Z,22.24
2018-09-15T17:58:10.774Z,22.25
2018-09-15T18:00:38.927Z,22.30
2018-09-15T18:03:06.934Z,22.29
2018-09-15T18:05:35.019Z,22.30
2018-09-15T18:08:03.107Z,22.27
2018-09-15T18:10:31.909Z,22.32
2018-09-15T18:13:00.577Z,22.34
2018-09-15T18:15:28.676Z,22.38
2018-09-15T18:17:56.766Z,22.38
2018-09-15T18:20:24.682Z,22.36
2018-09-15T18:22:52.789Z,22.39
2018-09-15T18:25:20.832Z,22.36
2018-09-15T18:27:52.105Z,22.42
2018-09-15T18:30:20.011Z,22.48
2018-09-15T18:32:47.903Z,22.41
2018-09-15T18:35:17.556Z,22.38
2018-09-15T18:37:45.558Z,22.47
2018-09-15T18:40:13.505Z,22.51
2018-09-15T18:42:42.242Z,22.48
2018-09-15T18:45:10.260Z,22.47
2018-09-15T18:47:39.354Z,22.51
2018-09-15T18:50:07.453Z,22.49
2018-09-15T18:52:35.577Z,22.48
2018-09-15T18:55:03.978Z,22.46
2018-09-15T18:57:32.841Z,22.43
2018-09-15T19:00:01.063Z,22.43
2018-09-15T19:02:29.141Z,22.42
2018-09-15T19:04:57.110Z,22.41
2018-09-15T19:07:25.266Z,22.39
2018-09-15T19:09:53.472Z,22.43
2018-09-15T19:12:21.504Z,22.47
2018-09-15T19:14:49.719Z,22.50
2018-09-15T19:17:17.852Z,22.56
2018-09-15T19:19:46.887Z,22.48
2018-09-15T19:22:16.134Z,22.66
2018-09-15T19:24:44.090Z,22.73
2018-09-15T19:27:13.560Z,22.78
2018-09-15T19:29:48.650Z,22.82
2018-09-15T19:35:11.212Z,22.86
2018-09-15T19:37:43.148Z,22.92
2018-09-15T19:40:11.985Z,22.81
2018-09-15T19:42:40.000Z,22.84
2018-09-15T19:45:10.614Z,22.84
2018-09-15T19:47:38.806Z,22.61
2018-09-15T19:50:06.823Z,22.52
2018-09-15T19:52:34.964Z,22.59
2018-09-15T19:55:03.114Z,22.46
2018-09-15T19:57:33.025Z,22.40
2018-09-15T20:00:01.070Z,22.43
2018-09-15T20:02:29.403Z,22.32
2018-09-15T20:04:57.600Z,22.28
2018-09-15T20:07:25.652Z,22.24
2018-09-15T20:09:53.982Z,22.33
2018-09-15T20:12:21.903Z,22.33
2018-09-15T20:14:50.043Z,22.27
2018-09-15T20:17:17.462Z,22.23
2018-09-15T20:19:44.168Z,22.25
2018-09-15T20:22:12.858Z,22.24
2018-09-15T20:24:41.941Z,22.23
2018-09-15T20:27:09.957Z,22.12
2018-09-15T20:29:38.074Z,22.16
2018-09-15T20:32:07.195Z,22.15
2018-09-15T20:34:35.848Z,22.14
2018-09-15T20:37:04.088Z,22.13
2018-09-15T20:39:32.481Z,22.06
2018-09-15T20:42:02.493Z,21.91
2018-09-15T20:44:30.570Z,21.88
2018-09-15T20:46:58.665Z,21.19
2018-09-15T20:49:26.556Z,21.81
2018-09-15T20:51:54.510Z,21.83
2018-09-15T20:54:22.451Z,21.83
2018-09-15T20:56:50.526Z,21.88
2018-09-15T20:59:18.455Z,21.87
2018-09-15T21:01:46.652Z,21.77
2018-09-15T21:04:18.565Z,21.70
2018-09-15T21:06:46.793Z,21.62
2018-09-15T21:09:14.905Z,21.63
2018-09-15T21:11:42.880Z,21.75
2018-09-15T21:14:11.244Z,21.75
2018-09-15T21:16:39.330Z,21.82
2018-09-15T21:19:07.345Z,21.85
2018-09-15T21:21:35.966Z,21.85
2018-09-15T21:24:04.075Z,21.73
2018-09-15T21:26:32.035Z,21.82
2018-09-15T21:29:00.307Z,21.75
2018-09-15T21:31:28.330Z,21.78
2018-09-15T21:33:56.376Z,21.87
2018-09-15T21:36:24.464Z,21.70
2018-09-15T21:38:52.592Z,21.63
2018-09-15T21:41:20.579Z,21.56
2018-09-15T21:43:48.525Z,21.60
2018-09-15T21:46:16.592Z,21.52
2018-09-15T21:48:44.501Z,21.54
2018-09-15T21:51:13.588Z,21.54
2018-09-15T21:53:41.541Z,21.60
2018-09-15T21:56:09.681Z,21.65
2018-09-15T21:58:37.722Z,21.72
2018-09-15T22:01:05.962Z,21.63
2018-09-15T22:03:39.481Z,21.56
2018-09-15T22:06:07.569Z,21.56
2018-09-15T22:08:35.606Z,21.41
2018-09-15T22:11:03.717Z,21.41
2018-09-15T22:13:31.724Z,21.26
2018-09-15T22:15:59.852Z,21.30
2018-09-15T22:18:27.961Z,21.28
2018-09-15T22:20:55.892Z,21.32
2018-09-15T22:23:24.090Z,21.14
2018-09-15T22:25:52.078Z,21.16
2018-09-15T22:28:20.323Z,21.10
2018-09-15T22:30:48.303Z,21.04
2018-09-15T22:33:16.936Z,20.90
2018-09-15T22:35:44.906Z,21.00
2018-09-15T22:38:12.945Z,20.96
2018-09-15T22:40:41.122Z,20.98
2018-09-15T22:43:09.090Z,21.01
2018-09-15T22:45:37.085Z,20.92
2018-09-15T22:48:05.090Z,20.98
2018-09-15T22:50:32.956Z,20.96
2018-09-15T22:53:00.922Z,20.88
2018-09-15T22:55:28.819Z,20.85
2018-09-15T22:57:56.973Z,20.90
2018-09-15T23:00:24.992Z,20.90
2018-09-15T23:02:53.073Z,20.82
2018-09-15T23:05:21.010Z,20.87
2018-09-15T23:07:48.898Z,20.86
2018-09-15T23:10:16.796Z,20.70
2018-09-15T23:12:44.707Z,20.89
2018-09-15T23:15:12.665Z,20.80
2018-09-15T23:17:43.482Z,20.73
2018-09-15T23:20:11.457Z,20.70
2018-09-15T23:22:39.449Z,20.69
2018-09-15T23:25:07.396Z,20.64
2018-09-15T23:27:35.329Z,20.63
2018-09-15T23:30:03.431Z,20.59
2018-09-15T23:32:31.298Z,20.55
2018-09-15T23:34:59.208Z,20.47
2018-09-15T23:37:27.146Z,20.56
2018-09-15T23:39:55.088Z,20.56
2018-09-15T23:42:23.177Z,20.50
2018-09-15T23:44:52.282Z,20.47
2018-09-15T23:47:20.361Z,20.42
2018-09-15T23:49:48.374Z,20.50
2018-09-15T23:52:16.344Z,20.41
2018-09-15T23:54:44.334Z,20.41
2018-09-15T23:57:12.243Z,20.42
2018-09-15T23:59:40.412Z,20.51
